createdAt,value
2022-12-06T00:00:35.628Z,82.80
2022-12-06T00:01:35.695Z,76.10
2022-12-06T00:02:35.722Z,105.20
2022-12-06T00:03:35.712Z,55.80
2022-12-06T00:04:35.579Z,48.90
2022-12-06T00:05:35.679Z,47.10
2022-12-06T00:06:35.570Z,50.70
2022-12-06T00:07:35.641Z,46.00
2022-12-06T00:08:35.723Z,46.20
2022-12-06T00:09:35.533Z,39.50
2022-12-06T00:10:35.547Z,43.00
2022-12-06T00:11:35.519Z,39.20
2022-12-06T00:12:35.510Z,36.00
2022-12-06T00:13:35.590Z,43.90
2022-12-06T00:14:35.486Z,43.60
2022-12-06T00:15:35.457Z,39.00
2022-12-06T00:16:35.529Z,41.60
2022-12-06T00:17:38.798Z,38.00
2022-12-06T00:18:35.477Z,37.50
2022-12-06T00:19:35.403Z,39.50
2022-12-06T00:20:35.414Z,48.30
2022-12-06T00:21:35.381Z,50.40
2022-12-06T00:22:35.348Z,47.10
2022-12-06T00:23:35.358Z,46.10
2022-12-06T00:24:35.379Z,50.40
2022-12-06T00:25:35.333Z,38.10
2022-12-06T00:26:35.380Z,32.90
2022-12-06T00:27:35.389Z,37.20
2022-12-06T00:28:35.269Z,36.20
2022-12-06T00:29:35.307Z,39.60
2022-12-06T00:30:35.254Z,35.30
2022-12-06T00:31:35.311Z,41.30
2022-12-06T00:32:35.253Z,40.00
2022-12-06T00:33:35.251Z,43.50
2022-12-06T00:34:35.290Z,40.80
2022-12-06T00:35:35.219Z,44.00
2022-12-06T00:36:35.174Z,45.60
2022-12-06T00:38:51.801Z,54.00
2022-12-06T00:39:52.784Z,55.50
2022-12-06T00:40:52.748Z,49.60
2022-12-06T00:41:52.768Z,59.80
2022-12-06T00:42:52.876Z,77.20
2022-12-06T00:43:52.738Z,72.90
2022-12-06T00:44:52.824Z,86.80
2022-12-06T00:45:52.756Z,51.00
2022-12-06T00:46:52.677Z,57.10
2022-12-06T00:47:52.691Z,105.00
2022-12-06T00:48:52.797Z,62.20
2022-12-06T00:49:52.656Z,84.20
2022-12-06T00:50:52.635Z,118.60
2022-12-06T00:51:52.648Z,87.80
2022-12-06T00:52:52.598Z,74.80
2022-12-06T00:53:52.638Z,47.80
2022-12-06T00:54:52.575Z,69.30
2022-12-06T00:55:52.581Z,56.10
2022-12-06T00:56:52.543Z,139.90
2022-12-06T00:57:52.556Z,101.40
2022-12-06T00:58:52.657Z,102.20
2022-12-06T00:59:52.567Z,194.50
2022-12-06T01:00:52.536Z,110.20
2022-12-06T01:01:52.589Z,109.60
2022-12-06T01:02:52.508Z,183.10
2022-12-06T01:03:52.554Z,179.80
2022-12-06T01:04:52.479Z,193.10
2022-12-06T01:05:52.448Z,234.00
2022-12-06T01:06:52.435Z,160.00
2022-12-06T01:07:52.528Z,180.00
2022-12-06T01:08:52.411Z,164.60
2022-12-06T01:09:52.444Z,182.10
2022-12-06T01:10:52.355Z,135.10
2022-12-06T01:11:52.371Z,80.70
2022-12-06T01:12:52.353Z,149.60
2022-12-06T01:13:52.354Z,148.20
2022-12-06T01:14:52.377Z,72.60
2022-12-06T01:15:52.294Z,48.30
2022-12-06T01:16:52.383Z,32.90
2022-12-06T01:17:52.272Z,33.00
2022-12-06T01:18:52.275Z,38.40
2022-12-06T01:19:52.257Z,32.30
2022-12-06T01:20:52.388Z,30.10
2022-12-06T01:21:52.223Z,29.00
2022-12-06T01:22:52.229Z,34.00
2022-12-06T01:23:52.200Z,30.20
2022-12-06T01:24:52.215Z,31.30
2022-12-06T01:25:52.210Z,28.70
2022-12-06T01:26:52.179Z,32.90
2022-12-06T01:27:52.201Z,34.80
2022-12-06T01:28:52.150Z,35.00
2022-12-06T01:29:52.113Z,36.40
2022-12-06T01:30:52.269Z,34.20
2022-12-06T01:31:52.094Z,35.70
2022-12-06T01:32:52.101Z,37.60
2022-12-06T01:33:52.151Z,41.00
2022-12-06T01:34:52.075Z,37.50
2022-12-06T01:35:52.040Z,43.90
2022-12-06T01:36:52.103Z,61.80
2022-12-06T01:37:52.009Z,96.20
2022-12-06T01:38:52.027Z,61.40
2022-12-06T01:39:51.987Z,112.60
2022-12-06T01:40:52.002Z,60.50
2022-12-06T01:41:51.982Z,97.40
2022-12-06T01:42:51.977Z,51.30
2022-12-06T01:43:51.947Z,38.50
2022-12-06T01:44:52.007Z,35.40
2022-12-06T01:45:51.989Z,39.40
2022-12-06T01:46:51.960Z,36.40
2022-12-06T01:47:51.877Z,38.40
2022-12-06T01:48:51.939Z,33.00
2022-12-06T01:49:51.857Z,34.80
2022-12-06T01:50:51.872Z,29.30
2022-12-06T01:51:51.839Z,30.10
2022-12-06T01:52:51.884Z,27.50
2022-12-06T01:53:51.805Z,26.20
2022-12-06T01:54:51.822Z,31.20
2022-12-06T01:55:51.783Z,26.60
2022-12-06T01:56:51.882Z,34.10
2022-12-06T01:57:51.779Z,31.60
2022-12-06T01:58:51.756Z,28.60
2022-12-06T01:59:51.762Z,27.20
2022-12-06T02:00:51.735Z,31.30
2022-12-06T02:01:51.765Z,30.30
2022-12-06T02:02:51.817Z,31.50
2022-12-06T02:03:51.676Z,32.50
2022-12-06T02:04:51.679Z,32.60
2022-12-06T02:05:51.650Z,29.20
2022-12-06T02:06:51.660Z,33.60
2022-12-06T02:07:51.685Z,32.60
2022-12-06T02:08:51.665Z,32.40
2022-12-06T02:09:51.597Z,34.00
2022-12-06T02:10:51.647Z,32.70
2022-12-06T02:11:51.575Z,34.10
2022-12-06T02:12:51.577Z,46.60
2022-12-06T02:13:51.573Z,94.30
2022-12-06T02:14:51.559Z,83.40
2022-12-06T02:15:51.516Z,55.30
2022-12-06T02:16:51.607Z,91.60
2022-12-06T02:17:51.538Z,71.30
2022-12-06T02:18:51.535Z,106.90
2022-12-06T02:19:51.482Z,123.60
2022-12-06T02:20:51.474Z,75.70
2022-12-06T02:21:51.467Z,65.80
2022-12-06T02:22:51.449Z,94.10
2022-12-06T02:23:51.411Z,106.80
2022-12-06T02:24:51.457Z,86.40
2022-12-06T02:25:51.381Z,157.00
2022-12-06T02:26:51.425Z,157.10
2022-12-06T02:27:51.364Z,87.60
2022-12-06T02:28:51.375Z,72.70
2022-12-06T02:29:51.370Z,84.40
2022-12-06T02:30:51.417Z,73.20
2022-12-06T02:31:51.308Z,62.80
2022-12-06T02:32:54.805Z,62.70
2022-12-06T02:33:51.279Z,50.90
2022-12-06T02:34:51.336Z,48.70
2022-12-06T02:35:51.265Z,47.50
2022-12-06T02:36:51.261Z,60.40
2022-12-06T02:37:51.245Z,49.20
2022-12-06T02:38:51.241Z,69.40
2022-12-06T02:39:51.200Z,136.60
2022-12-06T02:40:51.264Z,144.70
2022-12-06T02:41:51.176Z,51.60
2022-12-06T02:42:51.183Z,33.70
2022-12-06T02:43:51.144Z,30.30
2022-12-06T02:44:51.176Z,38.20
2022-12-06T02:45:51.234Z,32.00
2022-12-06T02:46:51.140Z,50.50
2022-12-06T02:47:51.100Z,37.20
2022-12-06T02:48:51.141Z,39.90
2022-12-06T02:49:51.069Z,39.20
2022-12-06T02:50:51.128Z,32.10
2022-12-06T02:51:51.037Z,32.00
2022-12-06T02:52:51.086Z,26.70
2022-12-06T02:53:51.016Z,31.00
2022-12-06T02:54:51.075Z,27.50
2022-12-06T02:55:51.006Z,28.50
2022-12-06T02:56:51.057Z,29.50
2022-12-06T02:57:50.971Z,26.20
2022-12-06T02:58:50.977Z,28.00
2022-12-06T02:59:50.964Z,30.90
2022-12-06T03:00:50.982Z,27.50
2022-12-06T03:01:51.014Z,25.10
2022-12-06T03:02:51.189Z,28.90
2022-12-06T03:03:50.898Z,25.00
2022-12-06T03:04:50.913Z,25.90
2022-12-06T03:05:50.876Z,26.90
2022-12-06T03:06:50.933Z,26.80
2022-12-06T03:07:50.866Z,22.70
2022-12-06T03:08:50.850Z,24.90
2022-12-06T03:09:50.840Z,27.00
2022-12-06T03:10:50.820Z,24.10
2022-12-06T03:11:50.782Z,26.90
2022-12-06T03:12:50.860Z,24.90
2022-12-06T03:13:50.780Z,23.90
2022-12-06T03:14:50.771Z,29.70
2022-12-06T03:15:50.853Z,22.30
2022-12-06T03:16:50.743Z,25.60
2022-12-06T03:17:50.725Z,30.00
2022-12-06T03:18:50.783Z,33.00
2022-12-06T03:19:50.677Z,32.40
2022-12-06T03:20:50.700Z,31.80
2022-12-06T03:21:50.697Z,31.20
2022-12-06T03:22:50.738Z,31.30
2022-12-06T03:23:50.663Z,28.20
2022-12-06T03:24:50.641Z,31.10
2022-12-06T03:25:50.607Z,30.20
2022-12-06T03:26:50.647Z,33.40
2022-12-06T03:27:50.569Z,32.40
2022-12-06T03:28:50.638Z,32.00
2022-12-06T03:29:50.555Z,30.60
2022-12-06T03:30:50.613Z,34.20
2022-12-06T03:31:50.562Z,32.90
2022-12-06T03:32:50.554Z,30.40
2022-12-06T03:33:50.529Z,27.60
2022-12-06T03:34:50.506Z,32.10
2022-12-06T03:35:50.518Z,26.20
2022-12-06T03:36:50.484Z,34.30
2022-12-06T03:37:50.452Z,32.70
2022-12-06T03:38:50.580Z,29.50
2022-12-06T03:39:50.418Z,31.00
2022-12-06T03:40:50.436Z,35.20
2022-12-06T03:41:50.403Z,30.70
2022-12-06T03:42:50.434Z,32.30
2022-12-06T03:43:50.369Z,35.60
2022-12-06T03:44:50.419Z,38.90
2022-12-06T03:45:50.405Z,32.80
2022-12-06T03:46:50.413Z,40.10
2022-12-06T03:47:50.318Z,36.80
2022-12-06T03:48:50.327Z,54.00
2022-12-06T03:49:50.356Z,38.70
2022-12-06T03:50:55.443Z,51.60
2022-12-06T03:51:50.268Z,47.20
2022-12-06T03:52:50.362Z,60.90
2022-12-06T03:53:50.274Z,39.10
2022-12-06T03:54:50.299Z,44.50
2022-12-06T03:55:50.218Z,60.90
2022-12-06T03:56:50.251Z,93.30
2022-12-06T03:57:50.184Z,98.80
2022-12-06T03:58:50.201Z,74.50
2022-12-06T03:59:50.193Z,97.00
2022-12-06T04:00:50.206Z,110.00
2022-12-06T04:01:50.284Z,47.90
2022-12-06T04:02:50.186Z,67.10
2022-12-06T04:03:50.236Z,66.80
2022-12-06T04:04:50.114Z,56.70
2022-12-06T04:05:50.139Z,113.40
2022-12-06T04:06:50.101Z,66.80
2022-12-06T04:07:50.099Z,60.00
2022-12-06T04:08:50.129Z,103.40
2022-12-06T04:09:50.081Z,99.10
2022-12-06T04:10:50.061Z,113.40
2022-12-06T04:11:50.051Z,202.90
2022-12-06T04:12:49.989Z,136.70
2022-12-06T04:13:50.003Z,95.20
2022-12-06T04:14:49.959Z,241.80
2022-12-06T04:15:50.021Z,235.80
2022-12-06T04:16:49.993Z,161.10
2022-12-06T04:17:49.954Z,114.60
2022-12-06T04:18:49.916Z,188.20
2022-12-06T04:19:58.958Z,168.40
2022-12-06T04:20:49.892Z,134.40
2022-12-06T04:21:49.921Z,155.60
2022-12-06T04:22:49.961Z,99.70
2022-12-06T04:23:49.867Z,217.40
2022-12-06T04:24:49.834Z,299.80
2022-12-06T04:25:49.864Z,223.70
2022-12-06T04:26:49.855Z,252.10
2022-12-06T04:27:49.814Z,263.40
2022-12-06T04:28:49.840Z,269.90
2022-12-06T04:29:49.796Z,278.00
2022-12-06T04:30:49.757Z,136.80
2022-12-06T04:31:49.805Z,250.80
2022-12-06T04:32:49.791Z,267.90
2022-12-06T04:33:49.756Z,113.50
2022-12-06T04:34:49.707Z,192.00
2022-12-06T04:35:49.725Z,157.00
2022-12-06T04:36:49.674Z,117.90
2022-12-06T04:37:49.716Z,71.00
2022-12-06T04:38:49.687Z,164.80
2022-12-06T04:39:49.697Z,167.50
2022-12-06T04:40:49.627Z,151.90
2022-12-06T04:41:49.634Z,230.80
2022-12-06T04:42:49.656Z,162.10
2022-12-06T04:43:49.611Z,205.50
2022-12-06T04:44:49.581Z,243.10
2022-12-06T04:45:49.614Z,205.30
2022-12-06T04:46:49.605Z,198.70
2022-12-06T04:47:49.563Z,204.90
2022-12-06T04:48:49.597Z,203.40
2022-12-06T04:49:49.535Z,112.60
2022-12-06T04:50:49.493Z,143.90
2022-12-06T04:51:49.584Z,165.10
2022-12-06T04:52:49.480Z,135.30
2022-12-06T04:53:49.512Z,211.70
2022-12-06T04:54:49.492Z,159.40
2022-12-06T04:55:49.465Z,115.30
2022-12-06T04:56:49.417Z,209.20
2022-12-06T04:57:49.472Z,180.80
2022-12-06T04:58:49.437Z,126.60
2022-12-06T04:59:49.407Z,116.70
2022-12-06T05:00:49.429Z,121.70
2022-12-06T05:01:49.395Z,154.60
2022-12-06T05:02:49.341Z,162.40
2022-12-06T05:03:49.378Z,151.50
2022-12-06T05:04:49.401Z,136.10
2022-12-06T05:05:49.340Z,110.60
2022-12-06T05:06:49.311Z,138.50
2022-12-06T05:07:49.405Z,149.30
2022-12-06T05:08:49.263Z,102.30
2022-12-06T05:09:49.307Z,84.40
2022-12-06T05:10:49.274Z,127.20
2022-12-06T05:11:49.268Z,106.70
2022-12-06T05:12:49.216Z,103.40
2022-12-06T05:13:49.218Z,162.60
2022-12-06T05:14:49.287Z,237.70
2022-12-06T05:15:49.228Z,218.10
2022-12-06T05:16:49.190Z,183.80
2022-12-06T05:17:49.187Z,249.10
2022-12-06T05:18:49.135Z,297.90
2022-12-06T05:19:49.140Z,212.00
2022-12-06T05:20:49.168Z,46.00
2022-12-06T05:21:50.089Z,72.30
2022-12-06T05:22:49.094Z,66.30
2022-12-06T05:23:49.090Z,96.20
2022-12-06T05:24:49.069Z,46.00
2022-12-06T05:25:49.106Z,33.20
2022-12-06T05:26:49.047Z,157.80
2022-12-06T05:27:49.041Z,68.50
2022-12-06T05:28:49.013Z,40.90
2022-12-06T05:29:49.016Z,35.40
2022-12-06T05:30:49.025Z,37.30
2022-12-06T05:31:49.067Z,231.30
2022-12-06T05:32:53.893Z,141.10
2022-12-06T05:33:48.968Z,100.10
2022-12-06T05:34:48.922Z,160.70
2022-12-06T05:35:48.935Z,94.20
2022-12-06T05:36:48.960Z,63.60
2022-12-06T05:37:48.915Z,77.10
2022-12-06T05:38:51.595Z,102.60
2022-12-06T05:39:48.933Z,139.60
2022-12-06T05:40:48.864Z,183.70
2022-12-06T05:41:48.896Z,130.30
2022-12-06T05:42:48.824Z,182.00
2022-12-06T05:43:48.856Z,232.10
2022-12-06T05:44:48.803Z,228.90
2022-12-06T05:45:48.869Z,192.40
2022-12-06T05:46:48.806Z,113.80
2022-12-06T05:47:48.778Z,113.60
2022-12-06T05:48:48.750Z,125.10
2022-12-06T05:49:48.767Z,77.60
2022-12-06T05:50:48.719Z,119.20
2022-12-06T05:51:48.721Z,92.00
2022-12-06T05:52:48.754Z,57.90
2022-12-06T05:53:48.697Z,91.80
2022-12-06T05:54:48.676Z,75.00
2022-12-06T05:55:48.681Z,81.70
2022-12-06T05:56:48.643Z,75.20
2022-12-06T05:57:48.686Z,197.60
2022-12-06T05:58:48.618Z,153.80
2022-12-06T05:59:48.654Z,120.80
2022-12-06T06:00:48.598Z,97.60
2022-12-06T06:01:48.621Z,36.00
2022-12-06T06:02:48.812Z,35.40
2022-12-06T06:03:48.631Z,69.70
2022-12-06T06:04:48.542Z,129.40
2022-12-06T06:05:48.543Z,174.20
2022-12-06T06:06:48.514Z,182.10
2022-12-06T06:07:48.574Z,175.30
2022-12-06T06:08:48.511Z,122.50
2022-12-06T06:09:48.498Z,143.30
2022-12-06T06:10:48.453Z,250.60
2022-12-06T06:11:48.468Z,237.60
2022-12-06T06:12:48.447Z,254.60
2022-12-06T06:13:48.463Z,211.80
2022-12-06T06:14:48.400Z,146.20
2022-12-06T06:15:48.407Z,139.60
2022-12-06T06:16:48.497Z,193.80
2022-12-06T06:17:48.393Z,179.30
2022-12-06T06:18:48.380Z,181.40
2022-12-06T06:19:51.413Z,114.90
2022-12-06T06:20:48.327Z,150.40
2022-12-06T06:21:48.332Z,120.80
2022-12-06T06:22:48.331Z,115.20
2022-12-06T06:23:48.303Z,138.40
2022-12-06T06:24:48.315Z,115.20
2022-12-06T06:25:48.324Z,134.90
2022-12-06T06:26:48.284Z,216.00
2022-12-06T06:27:48.258Z,240.60
2022-12-06T06:28:48.232Z,182.30
2022-12-06T06:29:48.235Z,269.80
2022-12-06T06:30:48.199Z,185.80
2022-12-06T06:31:48.302Z,211.10
2022-12-06T06:32:48.164Z,170.60
2022-12-06T06:33:48.182Z,148.60
2022-12-06T06:34:48.206Z,111.00
2022-12-06T06:35:48.155Z,97.90
2022-12-06T06:36:48.114Z,140.70
2022-12-06T06:37:48.121Z,149.10
2022-12-06T06:38:48.104Z,233.30
2022-12-06T06:39:48.048Z,243.80
2022-12-06T06:40:48.062Z,218.10
2022-12-06T06:41:48.077Z,223.00
2022-12-06T06:42:48.052Z,204.70
2022-12-06T06:43:48.010Z,126.20
2022-12-06T06:44:47.967Z,149.30
2022-12-06T06:45:48.029Z,98.90
2022-12-06T06:46:47.952Z,114.10
2022-12-06T06:47:47.940Z,159.80
2022-12-06T06:48:47.964Z,104.30
2022-12-06T06:49:47.916Z,132.60
2022-12-06T06:50:49.547Z,63.70
2022-12-06T06:51:47.941Z,71.20
2022-12-06T06:52:47.857Z,53.40
2022-12-06T06:53:47.866Z,54.70
2022-12-06T06:54:47.900Z,48.50
2022-12-06T06:55:48.733Z,65.30
2022-12-06T06:56:47.855Z,59.20
2022-12-06T06:57:47.856Z,111.60
2022-12-06T06:58:47.783Z,118.10
2022-12-06T06:59:47.786Z,86.10
2022-12-06T07:00:47.758Z,74.20
2022-12-06T07:01:47.824Z,69.40
2022-12-06T07:02:47.792Z,82.80
2022-12-06T07:03:47.775Z,94.30
2022-12-06T07:04:47.695Z,69.10
2022-12-06T07:05:47.717Z,90.60
2022-12-06T07:06:47.740Z,65.10
2022-12-06T07:07:47.785Z,52.00
2022-12-06T07:08:47.649Z,55.20
2022-12-06T07:09:47.687Z,51.40
2022-12-06T07:10:47.625Z,45.80
2022-12-06T07:11:47.623Z,53.70
2022-12-06T07:12:47.631Z,46.90
2022-12-06T07:13:52.522Z,50.00
2022-12-06T07:14:47.579Z,51.50
2022-12-06T07:15:47.575Z,45.70
2022-12-06T07:16:47.607Z,51.70
2022-12-06T07:17:47.582Z,47.10
2022-12-06T07:18:47.571Z,44.40
2022-12-06T07:19:47.535Z,46.00
2022-12-06T07:20:47.508Z,42.80
2022-12-06T07:21:47.548Z,41.40
2022-12-06T07:22:47.490Z,43.30
2022-12-06T07:23:47.494Z,51.80
2022-12-06T07:24:52.275Z,50.90
2022-12-06T07:25:47.456Z,38.10
2022-12-06T07:26:47.414Z,47.00
2022-12-06T07:27:47.419Z,46.10
2022-12-06T07:28:47.457Z,48.20
2022-12-06T07:29:47.413Z,43.30
2022-12-06T07:30:47.436Z,42.10
2022-12-06T07:31:47.378Z,43.80
2022-12-06T07:32:47.336Z,40.10
2022-12-06T07:33:47.430Z,41.10
2022-12-06T07:34:47.311Z,39.70
2022-12-06T07:36:11.472Z,44.10
2022-12-06T07:36:47.288Z,44.20
2022-12-06T07:37:47.301Z,46.10
2022-12-06T07:38:47.492Z,40.80
2022-12-06T07:39:47.319Z,40.70
2022-12-06T07:41:03.971Z,40.30
2022-12-06T07:41:47.263Z,42.80
2022-12-06T07:42:47.208Z,37.30
2022-12-06T07:43:47.286Z,40.50
2022-12-06T07:44:47.210Z,39.60
2022-12-06T07:45:47.194Z,42.70
2022-12-06T07:46:47.219Z,43.40
2022-12-06T07:47:47.162Z,45.10
2022-12-06T07:48:47.144Z,38.90
2022-12-06T07:49:47.369Z,50.20
2022-12-06T07:50:47.101Z,39.10
2022-12-06T07:51:47.118Z,38.20
2022-12-06T07:52:47.145Z,42.40
2022-12-06T07:53:47.115Z,38.30
2022-12-06T07:54:47.078Z,38.80
2022-12-06T07:55:47.117Z,35.30
2022-12-06T07:56:47.022Z,38.60
2022-12-06T07:57:47.042Z,37.40
2022-12-06T07:58:47.038Z,42.50
2022-12-06T07:59:47.184Z,35.80
2022-12-06T08:00:46.978Z,46.80
2022-12-06T08:01:47.157Z,45.80
2022-12-06T08:02:46.952Z,34.90
2022-12-06T08:03:46.971Z,43.20
2022-12-06T08:04:47.003Z,43.40
2022-12-06T08:05:47.006Z,43.80
2022-12-06T08:06:46.905Z,48.60
2022-12-06T08:07:47.014Z,43.30
2022-12-06T08:08:46.874Z,49.20
2022-12-06T08:09:46.878Z,53.60
2022-12-06T08:10:46.960Z,47.50
2022-12-06T08:11:46.850Z,45.10
2022-12-06T08:12:46.830Z,50.80
2022-12-06T08:13:46.892Z,52.70
2022-12-06T08:14:46.801Z,49.30
2022-12-06T08:15:46.895Z,50.80
2022-12-06T08:16:46.805Z,48.10
2022-12-06T08:17:46.786Z,45.30
2022-12-06T08:18:46.767Z,42.80
2022-12-06T08:19:46.753Z,41.20
2022-12-06T08:20:46.718Z,51.70
2022-12-06T08:21:46.750Z,44.00
2022-12-06T08:22:46.700Z,40.10
2022-12-06T08:23:46.718Z,46.50
2022-12-06T08:24:46.665Z,49.50
2022-12-06T08:25:46.664Z,49.20
2022-12-06T08:26:46.703Z,45.00
2022-12-06T08:27:46.636Z,40.00
2022-12-06T08:28:46.644Z,45.70
2022-12-06T08:29:46.635Z,41.60
2022-12-06T08:30:46.649Z,37.60
2022-12-06T08:31:46.679Z,41.30
2022-12-06T08:32:46.597Z,37.70
2022-12-06T08:33:46.546Z,33.80
2022-12-06T08:34:46.554Z,36.10
2022-12-06T08:35:46.535Z,43.40
2022-12-06T08:36:46.579Z,44.30
2022-12-06T08:37:46.488Z,45.10
2022-12-06T08:38:46.513Z,42.60
2022-12-06T08:39:46.462Z,38.90
2022-12-06T08:40:46.473Z,45.10
2022-12-06T08:41:46.437Z,42.50
2022-12-06T08:42:46.567Z,37.40
2022-12-06T08:43:46.430Z,42.80
2022-12-06T08:44:46.438Z,39.30
2022-12-06T08:45:46.409Z,40.30
2022-12-06T08:46:46.431Z,33.10
2022-12-06T08:47:46.392Z,39.80
2022-12-06T08:48:46.378Z,41.00
2022-12-06T08:49:46.332Z,39.20
2022-12-06T08:50:46.351Z,39.10
2022-12-06T08:51:46.310Z,33.60
2022-12-06T08:52:46.349Z,38.40
2022-12-06T08:53:46.361Z,35.70
2022-12-06T08:54:46.310Z,40.20
2022-12-06T08:55:46.295Z,42.10
2022-12-06T08:56:46.265Z,41.20
2022-12-06T08:57:46.291Z,40.80
2022-12-06T08:58:46.249Z,44.00
2022-12-06T08:59:46.215Z,41.00
2022-12-06T09:00:46.217Z,41.10
2022-12-06T09:01:46.253Z,40.50
2022-12-06T09:02:46.196Z,40.40
2022-12-06T09:03:46.211Z,39.90
2022-12-06T09:04:46.254Z,42.70
2022-12-06T09:05:46.147Z,36.30
2022-12-06T09:06:46.136Z,42.30
2022-12-06T09:07:46.181Z,39.50
2022-12-06T09:08:46.146Z,42.00
2022-12-06T09:09:46.094Z,40.00
2022-12-06T09:10:46.096Z,35.10
2022-12-06T09:11:46.042Z,37.80
2022-12-06T09:12:46.105Z,39.50
2022-12-06T09:13:46.048Z,36.30
2022-12-06T09:14:46.034Z,39.50
2022-12-06T09:15:46.071Z,35.60
2022-12-06T09:16:46.014Z,37.50
2022-12-06T09:17:45.976Z,42.90
2022-12-06T09:18:45.987Z,39.20
2022-12-06T09:19:46.007Z,37.30
2022-12-06T09:20:46.021Z,36.90
2022-12-06T09:21:45.925Z,35.20
2022-12-06T09:22:45.935Z,30.90
2022-12-06T09:23:45.891Z,30.70
2022-12-06T09:24:45.969Z,30.20
2022-12-06T09:25:45.896Z,29.30
2022-12-06T09:26:45.879Z,31.60
2022-12-06T09:27:45.859Z,29.70
2022-12-06T09:28:45.861Z,26.40
2022-12-06T09:29:45.853Z,31.80
2022-12-06T09:30:45.913Z,30.90
2022-12-06T09:31:45.830Z,28.90
2022-12-06T09:32:45.825Z,30.30
2022-12-06T09:33:45.842Z,28.70
2022-12-06T09:34:45.784Z,25.30
2022-12-06T09:35:45.772Z,28.10
2022-12-06T09:36:45.798Z,24.90
2022-12-06T09:37:45.722Z,27.90
2022-12-06T09:38:45.728Z,29.20
2022-12-06T09:39:45.685Z,32.50
2022-12-06T09:40:45.767Z,26.90
2022-12-06T09:41:45.671Z,30.20
2022-12-06T09:42:45.683Z,28.30
2022-12-06T09:43:45.668Z,26.90
2022-12-06T09:44:45.643Z,29.20
2022-12-06T09:45:45.656Z,28.30
2022-12-06T09:46:45.695Z,25.80
2022-12-06T09:47:45.586Z,22.80
2022-12-06T09:48:49.116Z,29.30
2022-12-06T09:49:45.702Z,28.90
2022-12-06T09:50:45.574Z,24.30
2022-12-06T09:51:45.568Z,23.40
2022-12-06T09:52:45.583Z,26.40
2022-12-06T09:53:45.514Z,27.90
2022-12-06T09:54:51.128Z,25.20
2022-12-06T09:55:45.494Z,23.20
2022-12-06T09:56:45.550Z,26.10
2022-12-06T09:57:45.451Z,23.30
2022-12-06T09:58:45.477Z,18.30
2022-12-06T09:59:45.450Z,23.70
2022-12-06T10:00:45.444Z,20.50
2022-12-06T10:01:45.511Z,19.50
2022-12-06T10:02:45.472Z,26.10
2022-12-06T10:03:45.378Z,26.30
2022-12-06T10:04:45.459Z,25.80
2022-12-06T10:05:50.553Z,23.20
2022-12-06T10:06:45.379Z,23.80
2022-12-06T10:07:45.500Z,25.80
2022-12-06T10:08:45.609Z,27.10
2022-12-06T10:09:45.306Z,28.00
2022-12-06T10:10:45.326Z,25.60
2022-12-06T10:11:45.296Z,27.50
2022-12-06T10:12:45.353Z,25.90
2022-12-06T10:13:45.254Z,24.70
2022-12-06T10:14:45.295Z,28.10
2022-12-06T10:15:45.286Z,24.60
2022-12-06T10:16:45.298Z,26.00
2022-12-06T10:17:50.563Z,25.00
2022-12-06T10:18:45.253Z,26.80
2022-12-06T10:19:45.201Z,24.20
2022-12-06T10:20:45.214Z,25.70
2022-12-06T10:21:45.155Z,24.80
2022-12-06T10:22:45.200Z,25.50
2022-12-06T10:23:45.117Z,25.80
2022-12-06T10:24:45.145Z,27.90
2022-12-06T10:25:45.138Z,29.30
2022-12-06T10:26:45.239Z,26.10
2022-12-06T10:27:45.073Z,28.90
2022-12-06T10:28:45.104Z,29.10
2022-12-06T10:29:45.045Z,31.20
2022-12-06T10:30:45.062Z,30.80
2022-12-06T10:31:45.114Z,31.30
2022-12-06T10:32:45.067Z,32.80
2022-12-06T10:33:44.991Z,29.90
2022-12-06T10:35:01.150Z,31.60
2022-12-06T10:35:44.972Z,33.20
2022-12-06T10:36:44.982Z,30.60
2022-12-06T10:37:44.974Z,32.30
2022-12-06T10:38:44.980Z,28.70
2022-12-06T10:39:50.191Z,37.50
2022-12-06T10:40:44.957Z,34.10
2022-12-06T10:41:44.894Z,33.10
2022-12-06T10:42:44.908Z,34.40
2022-12-06T10:43:44.873Z,34.30
2022-12-06T10:44:44.974Z,34.70
2022-12-06T10:45:44.834Z,35.90
2022-12-06T10:46:44.922Z,35.40
2022-12-06T10:47:44.861Z,37.20
2022-12-06T10:48:44.819Z,37.10
2022-12-06T10:49:44.791Z,37.20
2022-12-06T10:50:44.838Z,39.90
2022-12-06T10:51:44.783Z,39.30
2022-12-06T10:52:44.778Z,37.10
2022-12-06T10:53:44.735Z,32.80
2022-12-06T10:54:44.745Z,35.20
2022-12-06T10:55:44.706Z,34.30
2022-12-06T10:56:44.779Z,33.90
2022-12-06T10:57:44.689Z,37.60
2022-12-06T10:58:44.718Z,35.60
2022-12-06T10:59:44.659Z,27.20
2022-12-06T11:00:44.747Z,31.10
2022-12-06T11:01:44.677Z,27.60
2022-12-06T11:02:44.696Z,29.60
2022-12-06T11:03:44.607Z,29.20
2022-12-06T11:04:44.673Z,28.90
2022-12-06T11:05:44.616Z,27.50
2022-12-06T11:06:45.995Z,28.10
2022-12-06T11:07:44.609Z,29.50
2022-12-06T11:08:44.722Z,27.90
2022-12-06T11:09:44.536Z,29.20
2022-12-06T11:10:44.585Z,24.40
2022-12-06T11:11:44.518Z,25.60
2022-12-06T11:12:44.525Z,24.90
2022-12-06T11:13:44.480Z,23.40
2022-12-06T11:14:44.545Z,21.20
2022-12-06T11:15:44.444Z,27.10
2022-12-06T11:16:44.611Z,24.60
2022-12-06T11:17:44.421Z,26.10
2022-12-06T11:18:44.467Z,26.00
2022-12-06T11:19:44.403Z,28.30
2022-12-06T11:20:44.451Z,26.50
2022-12-06T11:21:44.384Z,26.60
2022-12-06T11:22:44.387Z,24.50
2022-12-06T11:23:44.342Z,28.50
2022-12-06T11:24:47.675Z,28.50
2022-12-06T11:25:44.373Z,27.90
2022-12-06T11:26:44.355Z,30.30
2022-12-06T11:27:44.291Z,25.40
2022-12-06T11:28:44.315Z,27.50
2022-12-06T11:29:44.273Z,27.10
2022-12-06T11:30:44.280Z,25.30
2022-12-06T11:31:44.348Z,27.00
2022-12-06T11:32:44.280Z,27.60
2022-12-06T11:33:44.215Z,22.60
2022-12-06T11:34:44.230Z,23.80
2022-12-06T11:35:44.212Z,23.00
2022-12-06T11:36:44.217Z,24.20
2022-12-06T11:37:44.595Z,25.60
2022-12-06T11:38:44.310Z,26.00
2022-12-06T11:39:44.134Z,24.90
2022-12-06T11:40:44.163Z,25.80
2022-12-06T11:41:44.119Z,25.90
2022-12-06T11:42:44.148Z,24.80
2022-12-06T11:43:44.082Z,23.30
2022-12-06T11:44:49.401Z,21.80
2022-12-06T11:45:44.106Z,22.50
2022-12-06T11:46:44.173Z,25.00
2022-12-06T11:47:44.036Z,21.90
2022-12-06T11:48:44.125Z,21.60
2022-12-06T11:49:44.013Z,19.80
2022-12-06T11:50:44.052Z,21.90
2022-12-06T11:51:44.020Z,20.10
2022-12-06T11:52:43.998Z,20.70
2022-12-06T11:53:43.960Z,22.10
2022-12-06T11:54:43.994Z,20.90
2022-12-06T11:55:43.925Z,20.20
2022-12-06T11:56:43.990Z,18.90
2022-12-06T11:57:43.938Z,18.70
2022-12-06T11:58:43.930Z,20.30
2022-12-06T11:59:43.881Z,17.80
2022-12-06T12:00:43.941Z,18.20
2022-12-06T12:01:43.906Z,19.00
2022-12-06T12:02:44.179Z,17.60
2022-12-06T12:03:43.898Z,18.20
2022-12-06T12:04:43.888Z,19.50
2022-12-06T12:05:43.811Z,19.50
2022-12-06T12:06:43.806Z,18.60
2022-12-06T12:07:43.899Z,17.50
2022-12-06T12:08:43.826Z,18.70
2022-12-06T12:09:43.750Z,19.30
2022-12-06T12:10:43.760Z,19.80
2022-12-06T12:11:43.722Z,17.00
2022-12-06T12:12:43.787Z,17.40
2022-12-06T12:13:43.713Z,17.00
2022-12-06T12:14:49.578Z,17.60
2022-12-06T12:15:43.676Z,18.90
2022-12-06T12:16:43.802Z,19.50
2022-12-06T12:17:43.666Z,19.70
2022-12-06T12:18:43.743Z,17.20
2022-12-06T12:19:43.629Z,14.90
2022-12-06T12:20:43.861Z,19.30
2022-12-06T12:21:43.632Z,16.40
2022-12-06T12:22:43.603Z,17.40
2022-12-06T12:23:43.568Z,17.10
2022-12-06T12:25:43.561Z,18.10
2022-12-06T12:26:43.550Z,17.50
2022-12-06T12:27:43.775Z,15.90
2022-12-06T12:28:43.527Z,18.20
2022-12-06T12:29:43.489Z,16.90
2022-12-06T12:30:43.600Z,17.20
2022-12-06T12:31:43.515Z,16.80
2022-12-06T12:32:43.542Z,15.60
2022-12-06T12:33:43.500Z,18.80
2022-12-06T12:34:43.454Z,17.00
2022-12-06T12:35:43.409Z,17.40
2022-12-06T12:36:43.440Z,17.40
2022-12-06T12:39:00.012Z,18.30
2022-12-06T12:40:03.750Z,20.00
2022-12-06T12:41:00.954Z,17.70
2022-12-06T12:42:00.912Z,16.90
2022-12-06T12:43:00.946Z,18.10
2022-12-06T12:44:35.830Z,19.40
2022-12-06T12:45:01.200Z,17.90
2022-12-06T12:46:02.786Z,17.20
2022-12-06T12:47:00.875Z,18.90
2022-12-06T12:48:00.837Z,19.00
2022-12-06T12:49:00.906Z,22.30
2022-12-06T12:50:00.814Z,17.20
2022-12-06T12:51:00.835Z,19.40